sensor_id;sensor_type;location;lat;lon;timestamp;temperature;humidity
67572;SHT31;54397;47.506;19.158;2023-07-29T00:02:14;21.75;79.87
67572;SHT31;54397;47.506;19.158;2023-07-29T00:05:41;21.77;79.82
67572;SHT31;54397;47.506;19.158;2023-07-29T00:09:03;21.64;80.13
67572;SHT31;54397;47.506;19.158;2023-07-29T00:12:25;21.64;80.02
67572;SHT31;54397;47.506;19.158;2023-07-29T00:15:46;21.71;79.87
67572;SHT31;54397;47.506;19.158;2023-07-29T00:19:10;21.67;79.71
67572;SHT31;54397;47.506;19.158;2023-07-29T00:22:32;21.46;80.57
67572;SHT31;54397;47.506;19.158;2023-07-29T00:25:57;21.57;80.08
67572;SHT31;54397;47.506;19.158;2023-07-29T00:29:18;21.56;79.50
67572;SHT31;54397;47.506;19.158;2023-07-29T00:32:42;21.71;79.25
67572;SHT31;54397;47.506;19.158;2023-07-29T00:36:04;21.71;79.47
67572;SHT31;54397;47.506;19.158;2023-07-29T00:39:28;21.64;79.66
67572;SHT31;54397;47.506;19.158;2023-07-29T00:42:52;21.70;79.85
67572;SHT31;54397;47.506;19.158;2023-07-29T00:46:14;21.58;79.88
67572;SHT31;54397;47.506;19.158;2023-07-29T00:49:42;21.53;80.31
67572;SHT31;54397;47.506;19.158;2023-07-29T00:53:04;21.56;80.44
67572;SHT31;54397;47.506;19.158;2023-07-29T00:56:25;21.39;80.63
67572;SHT31;54397;47.506;19.158;2023-07-29T00:59:50;21.29;80.76
67572;SHT31;54397;47.506;19.158;2023-07-29T01:03:12;21.26;80.93
67572;SHT31;54397;47.506;19.158;2023-07-29T01:10:03;21.25;81.27
67572;SHT31;54397;47.506;19.158;2023-07-29T01:13:50;21.23;81.25
67572;SHT31;54397;47.506;19.158;2023-07-29T01:17:22;21.23;81.26
67572;SHT31;54397;47.506;19.158;2023-07-29T01:20:49;21.23;80.98
67572;SHT31;54397;47.506;19.158;2023-07-29T01:24:12;21.19;80.88
67572;SHT31;54397;47.506;19.158;2023-07-29T01:27:34;21.19;80.90
67572;SHT31;54397;47.506;19.158;2023-07-29T01:31:09;21.22;80.29
67572;SHT31;54397;47.506;19.158;2023-07-29T01:34:58;21.20;80.29
67572;SHT31;54397;47.506;19.158;2023-07-29T01:38:43;21.19;80.38
67572;SHT31;54397;47.506;19.158;2023-07-29T01:42:06;20.81;81.45
67572;SHT31;54397;47.506;19.158;2023-07-29T01:45:30;20.79;81.62
67572;SHT31;54397;47.506;19.158;2023-07-29T01:48:56;20.77;81.66
67572;SHT31;54397;47.506;19.158;2023-07-29T01:52:20;20.60;82.10
67572;SHT31;54397;47.506;19.158;2023-07-29T01:55:43;20.60;82.24
67572;SHT31;54397;47.506;19.158;2023-07-29T01:59:06;20.64;81.94
67572;SHT31;54397;47.506;19.158;2023-07-29T02:02:28;20.71;81.89
67572;SHT31;54397;47.506;19.158;2023-07-29T02:05:49;20.74;81.67
67572;SHT31;54397;47.506;19.158;2023-07-29T02:09:11;20.74;81.59
67572;SHT31;54397;47.506;19.158;2023-07-29T02:12:33;20.75;81.45
67572;SHT31;54397;47.506;19.158;2023-07-29T02:15:57;20.79;81.16
67572;SHT31;54397;47.506;19.158;2023-07-29T02:19:18;20.75;81.26
67572;SHT31;54397;47.506;19.158;2023-07-29T02:22:40;20.68;81.51
67572;SHT31;54397;47.506;19.158;2023-07-29T02:26:04;20.71;81.42
67572;SHT31;54397;47.506;19.158;2023-07-29T02:29:28;20.75;81.00
67572;SHT31;54397;47.506;19.158;2023-07-29T02:32:51;20.65;80.75
67572;SHT31;54397;47.506;19.158;2023-07-29T02:36:13;20.61;80.80
67572;SHT31;54397;47.506;19.158;2023-07-29T02:39:35;20.55;81.16
67572;SHT31;54397;47.506;19.158;2023-07-29T02:42:59;20.47;81.71
67572;SHT31;54397;47.506;19.158;2023-07-29T02:46:21;20.40;81.93
67572;SHT31;54397;47.506;19.158;2023-07-29T02:49:45;20.43;81.80
67572;SHT31;54397;47.506;19.158;2023-07-29T02:53:06;20.40;82.20
67572;SHT31;54397;47.506;19.158;2023-07-29T02:56:28;20.24;82.12
67572;SHT31;54397;47.506;19.158;2023-07-29T02:59:52;20.26;82.08
67572;SHT31;54397;47.506;19.158;2023-07-29T03:03:14;20.24;81.94
67572;SHT31;54397;47.506;19.158;2023-07-29T03:06:36;20.30;81.80
67572;SHT31;54397;47.506;19.158;2023-07-29T03:09:58;20.31;81.85
67572;SHT31;54397;47.506;19.158;2023-07-29T03:13:22;20.22;81.71
67572;SHT31;54397;47.506;19.158;2023-07-29T03:16:47;20.22;81.28
67572;SHT31;54397;47.506;19.158;2023-07-29T03:20:08;20.16;81.27
67572;SHT31;54397;47.506;19.158;2023-07-29T03:23:33;20.16;81.28
67572;SHT31;54397;47.506;19.158;2023-07-29T03:26:57;20.06;81.52
67572;SHT31;54397;47.506;19.158;2023-07-29T03:30:22;20.10;81.33
67572;SHT31;54397;47.506;19.158;2023-07-29T03:33:43;20.12;81.21
67572;SHT31;54397;47.506;19.158;2023-07-29T03:37:08;20.08;80.99
67572;SHT31;54397;47.506;19.158;2023-07-29T03:40:30;20.05;81.26
67572;SHT31;54397;47.506;19.158;2023-07-29T03:43:52;20.05;81.59
67572;SHT31;54397;47.506;19.158;2023-07-29T03:47:13;20.00;81.92
67572;SHT31;54397;47.506;19.158;2023-07-29T03:50:36;20.06;81.81
67572;SHT31;54397;47.506;19.158;2023-07-29T03:53:58;20.03;81.94
67572;SHT31;54397;47.506;19.158;2023-07-29T03:57:19;20.10;81.94
67572;SHT31;54397;47.506;19.158;2023-07-29T04:00:41;20.10;81.89
67572;SHT31;54397;47.506;19.158;2023-07-29T04:04:03;20.10;81.48
67572;SHT31;54397;47.506;19.158;2023-07-29T04:07:27;20.09;81.46
67572;SHT31;54397;47.506;19.158;2023-07-29T04:10:51;19.97;81.80
67572;SHT31;54397;47.506;19.158;2023-07-29T04:14:13;20.05;81.93
67572;SHT31;54397;47.506;19.158;2023-07-29T04:17:35;20.09;82.10
67572;SHT31;54397;47.506;19.158;2023-07-29T04:20:59;20.20;81.77
67572;SHT31;54397;47.506;19.158;2023-07-29T04:24:20;20.22;81.69
67572;SHT31;54397;47.506;19.158;2023-07-29T04:27:44;20.37;81.53
67572;SHT31;54397;47.506;19.158;2023-07-29T04:31:06;20.37;81.86
67572;SHT31;54397;47.506;19.158;2023-07-29T04:34:37;20.52;81.69
67572;SHT31;54397;47.506;19.158;2023-07-29T04:37:58;20.65;81.58
67572;SHT31;54397;47.506;19.158;2023-07-29T04:41:20;20.72;81.32
67572;SHT31;54397;47.506;19.158;2023-07-29T04:44:47;20.79;81.13
67572;SHT31;54397;47.506;19.158;2023-07-29T04:48:08;20.77;81.28
67572;SHT31;54397;47.506;19.158;2023-07-29T04:51:35;20.91;81.21
67572;SHT31;54397;47.506;19.158;2023-07-29T04:54:58;21.00;81.01
67572;SHT31;54397;47.506;19.158;2023-07-29T04:58:20;21.09;81.10
67572;SHT31;54397;47.506;19.158;2023-07-29T05:01:44;21.22;80.17
67572;SHT31;54397;47.506;19.158;2023-07-29T05:05:06;21.29;79.27
67572;SHT31;54397;47.506;19.158;2023-07-29T05:08:28;21.36;79.62
67572;SHT31;54397;47.506;19.158;2023-07-29T05:11:50;21.57;79.08
67572;SHT31;54397;47.506;19.158;2023-07-29T05:15:11;21.84;77.27
67572;SHT31;54397;47.506;19.158;2023-07-29T05:18:33;22.19;76.52
67572;SHT31;54397;47.506;19.158;2023-07-29T05:21:59;22.52;74.84
67572;SHT31;54397;47.506;19.158;2023-07-29T05:25:24;22.84;73.62
67572;SHT31;54397;47.506;19.158;2023-07-29T05:28:48;23.07;72.74
67572;SHT31;54397;47.506;19.158;2023-07-29T05:32:11;23.34;71.70
67572;SHT31;54397;47.506;19.158;2023-07-29T05:35:36;23.44;71.27
67572;SHT31;54397;47.506;19.158;2023-07-29T05:38:58;23.49;70.89
67572;SHT31;54397;47.506;19.158;2023-07-29T05:42:20;23.70;70.24
67572;SHT31;54397;47.506;19.158;2023-07-29T05:45:44;23.76;70.17
67572;SHT31;54397;47.506;19.158;2023-07-29T05:49:06;23.99;69.54
67572;SHT31;54397;47.506;19.158;2023-07-29T05:52:28;23.99;69.70
67572;SHT31;54397;47.506;19.158;2023-07-29T05:55:52;24.10;68.92
67572;SHT31;54397;47.506;19.158;2023-07-29T05:59:18;24.13;69.33
67572;SHT31;54397;47.506;19.158;2023-07-29T06:02:40;24.13;69.45
67572;SHT31;54397;47.506;19.158;2023-07-29T06:06:04;24.16;69.31
67572;SHT31;54397;47.506;19.158;2023-07-29T06:09:29;24.38;68.09
67572;SHT31;54397;47.506;19.158;2023-07-29T06:12:50;24.57;68.43
67572;SHT31;54397;47.506;19.158;2023-07-29T06:16:12;24.49;66.20
67572;SHT31;54397;47.506;19.158;2023-07-29T06:19:34;24.48;67.17
67572;SHT31;54397;47.506;19.158;2023-07-29T06:22:55;24.48;66.97
67572;SHT31;54397;47.506;19.158;2023-07-29T06:26:17;24.67;67.05
67572;SHT31;54397;47.506;19.158;2023-07-29T06:29:39;24.83;66.32
67572;SHT31;54397;47.506;19.158;2023-07-29T06:33:02;24.93;66.79
67572;SHT31;54397;47.506;19.158;2023-07-29T06:36:25;25.24;66.12
67572;SHT31;54397;47.506;19.158;2023-07-29T06:39:46;25.57;65.13
67572;SHT31;54397;47.506;19.158;2023-07-29T06:43:08;25.89;63.80
67572;SHT31;54397;47.506;19.158;2023-07-29T06:46:30;26.15;62.83
67572;SHT31;54397;47.506;19.158;2023-07-29T06:49:53;26.25;61.13
67572;SHT31;54397;47.506;19.158;2023-07-29T06:53:17;26.32;61.73
67572;SHT31;54397;47.506;19.158;2023-07-29T06:56:41;26.47;59.95
67572;SHT31;54397;47.506;19.158;2023-07-29T07:00:04;26.44;58.83
67572;SHT31;54397;47.506;19.158;2023-07-29T07:03:25;26.23;59.28
67572;SHT31;54397;47.506;19.158;2023-07-29T07:06:50;26.40;58.61
67572;SHT31;54397;47.506;19.158;2023-07-29T07:10:13;26.70;59.49
67572;SHT31;54397;47.506;19.158;2023-07-29T07:13:35;27.25;58.47
67572;SHT31;54397;47.506;19.158;2023-07-29T07:16:57;27.32;57.57
67572;SHT31;54397;47.506;19.158;2023-07-29T07:20:21;27.52;56.91
67572;SHT31;54397;47.506;19.158;2023-07-29T07:23:42;27.94;56.41
67572;SHT31;54397;47.506;19.158;2023-07-29T07:27:07;27.94;55.67
67572;SHT31;54397;47.506;19.158;2023-07-29T07:30:29;28.02;55.74
67572;SHT31;54397;47.506;19.158;2023-07-29T07:33:51;28.00;55.40
67572;SHT31;54397;47.506;19.158;2023-07-29T07:37:15;28.18;54.53
67572;SHT31;54397;47.506;19.158;2023-07-29T07:40:37;27.91;53.73
67572;SHT31;54397;47.506;19.158;2023-07-29T07:43:59;28.05;54.30
67572;SHT31;54397;47.506;19.158;2023-07-29T07:47:22;27.87;55.15
67572;SHT31;54397;47.506;19.158;2023-07-29T07:50:47;27.77;54.21
67572;SHT31;54397;47.506;19.158;2023-07-29T07:54:08;27.69;54.89
67572;SHT31;54397;47.506;19.158;2023-07-29T07:57:30;27.80;54.62
67572;SHT31;54397;47.506;19.158;2023-07-29T08:00:51;27.71;54.59
67572;SHT31;54397;47.506;19.158;2023-07-29T08:04:13;27.60;55.98
67572;SHT31;54397;47.506;19.158;2023-07-29T08:07:35;28.05;54.80
67572;SHT31;54397;47.506;19.158;2023-07-29T08:10:57;28.25;53.58
67572;SHT31;54397;47.506;19.158;2023-07-29T08:14:21;28.24;54.05
67572;SHT31;54397;47.506;19.158;2023-07-29T08:17:45;28.07;54.27
67572;SHT31;54397;47.506;19.158;2023-07-29T08:21:07;28.01;53.25
67572;SHT31;54397;47.506;19.158;2023-07-29T08:24:29;27.93;54.63
67572;SHT31;54397;47.506;19.158;2023-07-29T08:27:50;28.37;53.94
67572;SHT31;54397;47.506;19.158;2023-07-29T08:31:14;28.18;53.47
67572;SHT31;54397;47.506;19.158;2023-07-29T08:34:36;28.62;52.37
67572;SHT31;54397;47.506;19.158;2023-07-29T08:38:01;28.63;51.22
67572;SHT31;54397;47.506;19.158;2023-07-29T08:41:29;28.63;51.20
67572;SHT31;54397;47.506;19.158;2023-07-29T08:44:54;29.37;51.84
67572;SHT31;54397;47.506;19.158;2023-07-29T08:48:19;29.85;47.76
67572;SHT31;54397;47.506;19.158;2023-07-29T08:51:48;30.24;46.83
67572;SHT31;54397;47.506;19.158;2023-07-29T08:55:13;30.16;47.31
67572;SHT31;54397;47.506;19.158;2023-07-29T08:58:35;29.93;48.47
67572;SHT31;54397;47.506;19.158;2023-07-29T09:01:57;30.12;48.48
67572;SHT31;54397;47.506;19.158;2023-07-29T09:05:23;30.14;47.06
67572;SHT31;54397;47.506;19.158;2023-07-29T09:08:50;29.98;47.34
67572;SHT31;54397;47.506;19.158;2023-07-29T09:12:12;30.06;43.80
67572;SHT31;54397;47.506;19.158;2023-07-29T09:15:37;29.99;44.52
67572;SHT31;54397;47.506;19.158;2023-07-29T09:19:02;30.16;43.81
67572;SHT31;54397;47.506;19.158;2023-07-29T09:22:27;30.81;42.75
67572;SHT31;54397;47.506;19.158;2023-07-29T09:25:48;30.64;41.77
67572;SHT31;54397;47.506;19.158;2023-07-29T09:29:21;31.06;40.87
67572;SHT31;54397;47.506;19.158;2023-07-29T09:32:52;31.12;41.43
67572;SHT31;54397;47.506;19.158;2023-07-29T09:36:14;31.87;41.00
67572;SHT31;54397;47.506;19.158;2023-07-29T09:39:36;31.46;39.81
67572;SHT31;54397;47.506;19.158;2023-07-29T09:42:57;30.86;41.15
67572;SHT31;54397;47.506;19.158;2023-07-29T09:46:22;30.68;39.36
67572;SHT31;54397;47.506;19.158;2023-07-29T09:49:45;30.85;39.46
67572;SHT31;54397;47.506;19.158;2023-07-29T09:53:08;30.40;39.87
67572;SHT31;54397;47.506;19.158;2023-07-29T09:56:32;30.96;41.65
67572;SHT31;54397;47.506;19.158;2023-07-29T09:59:55;30.95;39.54
67572;SHT31;54397;47.506;19.158;2023-07-29T10:03:23;30.75;40.07
67572;SHT31;54397;47.506;19.158;2023-07-29T10:06:46;30.96;41.22
67572;SHT31;54397;47.506;19.158;2023-07-29T10:10:11;31.33;40.61
67572;SHT31;54397;47.506;19.158;2023-07-29T10:13:36;31.74;38.65
67572;SHT31;54397;47.506;19.158;2023-07-29T10:16:59;31.23;39.70
67572;SHT31;54397;47.506;19.158;2023-07-29T10:20:24;30.96;40.26
67572;SHT31;54397;47.506;19.158;2023-07-29T10:23:47;30.84;38.83
67572;SHT31;54397;47.506;19.158;2023-07-29T10:27:13;30.86;40.13
67572;SHT31;54397;47.506;19.158;2023-07-29T10:30:39;31.41;40.40
67572;SHT31;54397;47.506;19.158;2023-07-29T10:34:01;31.37;39.22
67572;SHT31;54397;47.506;19.158;2023-07-29T10:37:23;32.16;39.90
67572;SHT31;54397;47.506;19.158;2023-07-29T10:40:52;33.06;38.16
67572;SHT31;54397;47.506;19.158;2023-07-29T10:48:00;32.60;37.40
67572;SHT31;54397;47.506;19.158;2023-07-29T10:51:35;32.40;39.06
67572;SHT31;54397;47.506;19.158;2023-07-29T10:54:57;32.05;38.56
67572;SHT31;54397;47.506;19.158;2023-07-29T10:58:21;31.61;39.07
67572;SHT31;54397;47.506;19.158;2023-07-29T11:02:11;31.47;39.54
67572;SHT31;54397;47.506;19.158;2023-07-29T11:05:52;31.19;41.10
67572;SHT31;54397;47.506;19.158;2023-07-29T11:13:20;31.29;42.48
67572;SHT31;54397;47.506;19.158;2023-07-29T11:16:42;31.21;41.04
67572;SHT31;54397;47.506;19.158;2023-07-29T11:20:07;30.95;41.36
67572;SHT31;54397;47.506;19.158;2023-07-29T11:23:35;30.86;42.31
67572;SHT31;54397;47.506;19.158;2023-07-29T11:27:04;30.85;41.31
67572;SHT31;54397;47.506;19.158;2023-07-29T11:30:26;31.25;41.33
67572;SHT31;54397;47.506;19.158;2023-07-29T11:33:51;30.74;41.30
67572;SHT31;54397;47.506;19.158;2023-07-29T11:37:16;31.40;42.81
67572;SHT31;54397;47.506;19.158;2023-07-29T11:40:42;31.81;40.16
67572;SHT31;54397;47.506;19.158;2023-07-29T11:44:16;32.45;41.19
67572;SHT31;54397;47.506;19.158;2023-07-29T11:47:43;32.57;40.25
67572;SHT31;54397;47.506;19.158;2023-07-29T11:51:09;32.08;40.78
67572;SHT31;54397;47.506;19.158;2023-07-29T11:54:35;31.89;41.31
67572;SHT31;54397;47.506;19.158;2023-07-29T11:58:01;32.18;40.85
67572;SHT31;54397;47.506;19.158;2023-07-29T12:01:23;32.28;39.33
67572;SHT31;54397;47.506;19.158;2023-07-29T12:04:46;31.50;40.43
67572;SHT31;54397;47.506;19.158;2023-07-29T12:08:08;30.79;40.92
67572;SHT31;54397;47.506;19.158;2023-07-29T12:11:33;30.71;41.67
67572;SHT31;54397;47.506;19.158;2023-07-29T12:14:55;30.74;43.02
67572;SHT31;54397;47.506;19.158;2023-07-29T12:18:19;30.64;42.67
67572;SHT31;54397;47.506;19.158;2023-07-29T12:21:51;30.41;42.48
67572;SHT31;54397;47.506;19.158;2023-07-29T12:25:14;30.33;43.69
67572;SHT31;54397;47.506;19.158;2023-07-29T12:28:36;30.57;44.60
67572;SHT31;54397;47.506;19.158;2023-07-29T12:32:02;30.57;42.84
67572;SHT31;54397;47.506;19.158;2023-07-29T12:35:24;30.30;43.49
67572;SHT31;54397;47.506;19.158;2023-07-29T12:38:46;30.03;43.74
67572;SHT31;54397;47.506;19.158;2023-07-29T12:42:07;29.80;44.12
67572;SHT31;54397;47.506;19.158;2023-07-29T12:45:35;29.83;44.57
67572;SHT31;54397;47.506;19.158;2023-07-29T12:48:57;29.86;42.91
67572;SHT31;54397;47.506;19.158;2023-07-29T12:52:21;30.20;40.73
67572;SHT31;54397;47.506;19.158;2023-07-29T12:55:45;30.45;40.99
67572;SHT31;54397;47.506;19.158;2023-07-29T12:59:07;30.43;40.35
67572;SHT31;54397;47.506;19.158;2023-07-29T13:02:28;30.27;40.30
67572;SHT31;54397;47.506;19.158;2023-07-29T13:05:51;30.43;41.40
67572;SHT31;54397;47.506;19.158;2023-07-29T13:09:16;30.96;39.77
67572;SHT31;54397;47.506;19.158;2023-07-29T13:12:40;31.26;38.23
67572;SHT31;54397;47.506;19.158;2023-07-29T13:16:02;31.43;37.88
67572;SHT31;54397;47.506;19.158;2023-07-29T13:19:24;31.30;38.25
67572;SHT31;54397;47.506;19.158;2023-07-29T13:22:48;31.39;37.50
67572;SHT31;54397;47.506;19.158;2023-07-29T13:26:10;31.51;37.77
67572;SHT31;54397;47.506;19.158;2023-07-29T13:29:32;31.21;37.81
67572;SHT31;54397;47.506;19.158;2023-07-29T13:32:56;31.21;38.43
67572;SHT31;54397;47.506;19.158;2023-07-29T13:36:18;31.18;39.33
67572;SHT31;54397;47.506;19.158;2023-07-29T13:39:39;31.13;39.60
67572;SHT31;54397;47.506;19.158;2023-07-29T13:43:01;31.34;39.93
67572;SHT31;54397;47.506;19.158;2023-07-29T13:46:28;31.46;39.53
67572;SHT31;54397;47.506;19.158;2023-07-29T13:49:53;31.50;38.46
67572;SHT31;54397;47.506;19.158;2023-07-29T13:53:14;31.53;38.76
67572;SHT31;54397;47.506;19.158;2023-07-29T13:56:39;31.46;39.16
67572;SHT31;54397;47.506;19.158;2023-07-29T14:00:00;31.60;39.66
67572;SHT31;54397;47.506;19.158;2023-07-29T14:03:25;31.71;39.64
67572;SHT31;54397;47.506;19.158;2023-07-29T14:06:48;31.81;39.30
67572;SHT31;54397;47.506;19.158;2023-07-29T14:10:21;31.77;38.68
67572;SHT31;54397;47.506;19.158;2023-07-29T14:13:45;31.85;39.23
67572;SHT31;54397;47.506;19.158;2023-07-29T14:17:07;31.66;39.16
67572;SHT31;54397;47.506;19.158;2023-07-29T14:20:30;31.13;39.42
67572;SHT31;54397;47.506;19.158;2023-07-29T14:23:52;30.96;40.14
67572;SHT31;54397;47.506;19.158;2023-07-29T14:27:13;30.79;39.67
67572;SHT31;54397;47.506;19.158;2023-07-29T14:30:37;30.98;39.61
67572;SHT31;54397;47.506;19.158;2023-07-29T14:34:01;30.95;40.30
67572;SHT31;54397;47.506;19.158;2023-07-29T14:37:23;31.12;39.73
67572;SHT31;54397;47.506;19.158;2023-07-29T14:40:47;31.19;39.19
67572;SHT31;54397;47.506;19.158;2023-07-29T14:44:09;31.18;39.56
67572;SHT31;54397;47.506;19.158;2023-07-29T14:47:35;30.99;39.60
67572;SHT31;54397;47.506;19.158;2023-07-29T14:50:57;30.81;39.99
67572;SHT31;54397;47.506;19.158;2023-07-29T14:54:22;30.67;40.05
67572;SHT31;54397;47.506;19.158;2023-07-29T14:57:44;30.48;39.94
67572;SHT31;54397;47.506;19.158;2023-07-29T15:01:05;30.47;40.80
67572;SHT31;54397;47.506;19.158;2023-07-29T15:04:29;30.41;41.16
67572;SHT31;54397;47.506;19.158;2023-07-29T15:07:51;30.23;41.20
67572;SHT31;54397;47.506;19.158;2023-07-29T15:11:12;30.20;41.61
67572;SHT31;54397;47.506;19.158;2023-07-29T15:14:34;30.17;41.73
67572;SHT31;54397;47.506;19.158;2023-07-29T15:17:56;30.19;41.88
67572;SHT31;54397;47.506;19.158;2023-07-29T15:21:18;30.14;42.40
67572;SHT31;54397;47.506;19.158;2023-07-29T15:24:43;30.10;42.39
67572;SHT31;54397;47.506;19.158;2023-07-29T15:28:04;30.13;43.09
67572;SHT31;54397;47.506;19.158;2023-07-29T15:31:26;30.16;43.27
67572;SHT31;54397;47.506;19.158;2023-07-29T15:34:48;30.21;42.93
67572;SHT31;54397;47.506;19.158;2023-07-29T15:38:10;30.17;43.49
67572;SHT31;54397;47.506;19.158;2023-07-29T15:41:32;30.09;43.49
67572;SHT31;54397;47.506;19.158;2023-07-29T15:44:57;30.06;43.47
67572;SHT31;54397;47.506;19.158;2023-07-29T15:48:26;29.90;43.31
67572;SHT31;54397;47.506;19.158;2023-07-29T15:51:48;29.78;44.05
67572;SHT31;54397;47.506;19.158;2023-07-29T15:55:10;29.72;44.19
67572;SHT31;54397;47.506;19.158;2023-07-29T15:58:34;29.68;44.56
67572;SHT31;54397;47.506;19.158;2023-07-29T16:01:55;29.61;44.52
67572;SHT31;54397;47.506;19.158;2023-07-29T16:05:19;29.58;44.62
67572;SHT31;54397;47.506;19.158;2023-07-29T16:08:41;29.54;44.24
67572;SHT31;54397;47.506;19.158;2023-07-29T16:12:03;29.52;44.71
67572;SHT31;54397;47.506;19.158;2023-07-29T16:15:25;29.54;44.41
67572;SHT31;54397;47.506;19.158;2023-07-29T16:18:47;29.45;44.86
67572;SHT31;54397;47.506;19.158;2023-07-29T16:22:08;29.39;44.64
67572;SHT31;54397;47.506;19.158;2023-07-29T16:25:33;29.37;44.99
67572;SHT31;54397;47.506;19.158;2023-07-29T16:28:54;29.31;45.35
67572;SHT31;54397;47.506;19.158;2023-07-29T16:32:18;29.27;45.48
67572;SHT31;54397;47.506;19.158;2023-07-29T16:35:40;29.23;45.79
67572;SHT31;54397;47.506;19.158;2023-07-29T16:39:04;29.18;45.85
67572;SHT31;54397;47.506;19.158;2023-07-29T16:42:26;29.20;45.93
67572;SHT31;54397;47.506;19.158;2023-07-29T16:45:48;29.13;46.12
67572;SHT31;54397;47.506;19.158;2023-07-29T16:49:10;29.04;46.10
67572;SHT31;54397;47.506;19.158;2023-07-29T16:52:45;28.93;46.41
67572;SHT31;54397;47.506;19.158;2023-07-29T16:56:07;28.87;46.65
67572;SHT31;54397;47.506;19.158;2023-07-29T16:59:31;28.87;46.71
67572;SHT31;54397;47.506;19.158;2023-07-29T17:02:57;28.90;46.89
67572;SHT31;54397;47.506;19.158;2023-07-29T17:06:19;28.87;47.11
67572;SHT31;54397;47.506;19.158;2023-07-29T17:22:57;28.70;47.64
67572;SHT31;54397;47.506;19.158;2023-07-29T17:26:19;28.56;47.97
67572;SHT31;54397;47.506;19.158;2023-07-29T17:29:46;28.44;48.19
67572;SHT31;54397;47.506;19.158;2023-07-29T17:33:10;28.38;49.30
67572;SHT31;54397;47.506;19.158;2023-07-29T17:36:31;28.24;51.15
67572;SHT31;54397;47.506;19.158;2023-07-29T17:39:53;28.11;52.44
67572;SHT31;54397;47.506;19.158;2023-07-29T17:43:15;28.01;54.89
67572;SHT31;54397;47.506;19.158;2023-07-29T17:46:39;27.86;55.08
67572;SHT31;54397;47.506;19.158;2023-07-29T17:50:03;27.67;55.77
67572;SHT31;54397;47.506;19.158;2023-07-29T17:53:27;27.54;55.77
67572;SHT31;54397;47.506;19.158;2023-07-29T17:56:51;27.39;55.48
67572;SHT31;54397;47.506;19.158;2023-07-29T18:00:16;27.26;55.99
67572;SHT31;54397;47.506;19.158;2023-07-29T18:03:38;27.04;57.18
67572;SHT31;54397;47.506;19.158;2023-07-29T18:06:59;26.74;56.42
67572;SHT31;54397;47.506;19.158;2023-07-29T18:10:24;26.58;58.04
67572;SHT31;54397;47.506;19.158;2023-07-29T18:13:46;26.53;57.47
67572;SHT31;54397;47.506;19.158;2023-07-29T18:17:10;26.57;58.57
67572;SHT31;54397;47.506;19.158;2023-07-29T18:20:34;26.57;59.12
67572;SHT31;54397;47.506;19.158;2023-07-29T18:23:59;26.57;59.98
67572;SHT31;54397;47.506;19.158;2023-07-29T18:27:24;26.49;59.45
67572;SHT31;54397;47.506;19.158;2023-07-29T18:30:48;26.29;57.37
67572;SHT31;54397;47.506;19.158;2023-07-29T18:34:11;26.29;61.09
67572;SHT31;54397;47.506;19.158;2023-07-29T18:37:34;26.25;57.82
67572;SHT31;54397;47.506;19.158;2023-07-29T18:40:58;25.93;58.98
67572;SHT31;54397;47.506;19.158;2023-07-29T18:44:20;25.95;59.51
67572;SHT31;54397;47.506;19.158;2023-07-29T18:47:42;26.03;59.77
67572;SHT31;54397;47.506;19.158;2023-07-29T18:51:03;26.12;59.68
67572;SHT31;54397;47.506;19.158;2023-07-29T18:54:28;26.12;60.74
67572;SHT31;54397;47.506;19.158;2023-07-29T18:57:55;26.22;59.80
67572;SHT31;54397;47.506;19.158;2023-07-29T19:01:17;26.16;60.17
67572;SHT31;54397;47.506;19.158;2023-07-29T19:04:46;26.15;59.98
67572;SHT31;54397;47.506;19.158;2023-07-29T19:08:09;26.13;60.72
67572;SHT31;54397;47.506;19.158;2023-07-29T19:11:35;26.10;60.92
67572;SHT31;54397;47.506;19.158;2023-07-29T19:14:57;26.08;61.02
67572;SHT31;54397;47.506;19.158;2023-07-29T19:18:21;25.95;61.81
67572;SHT31;54397;47.506;19.158;2023-07-29T19:21:42;25.93;61.72
67572;SHT31;54397;47.506;19.158;2023-07-29T19:25:04;25.82;62.68
67572;SHT31;54397;47.506;19.158;2023-07-29T19:28:28;25.57;62.76
67572;SHT31;54397;47.506;19.158;2023-07-29T19:31:52;25.57;63.26
67572;SHT31;54397;47.506;19.158;2023-07-29T19:35:14;25.50;63.38
67572;SHT31;54397;47.506;19.158;2023-07-29T19:38:36;25.62;62.76
67572;SHT31;54397;47.506;19.158;2023-07-29T19:41:57;25.53;63.09
67572;SHT31;54397;47.506;19.158;2023-07-29T19:45:20;25.44;63.39
67572;SHT31;54397;47.506;19.158;2023-07-29T19:48:45;25.40;63.41
67572;SHT31;54397;47.506;19.158;2023-07-29T19:52:07;25.33;64.26
67572;SHT31;54397;47.506;19.158;2023-07-29T19:55:28;25.03;65.13
67572;SHT31;54397;47.506;19.158;2023-07-29T19:58:52;24.86;65.75
67572;SHT31;54397;47.506;19.158;2023-07-29T20:02:16;24.78;65.99
67572;SHT31;54397;47.506;19.158;2023-07-29T20:05:42;24.76;66.60
67572;SHT31;54397;47.506;19.158;2023-07-29T20:09:03;24.78;66.17
67572;SHT31;54397;47.506;19.158;2023-07-29T20:12:30;24.73;66.18
67572;SHT31;54397;47.506;19.158;2023-07-29T20:15:52;24.68;66.71
67572;SHT31;54397;47.506;19.158;2023-07-29T20:19:19;24.62;67.37
67572;SHT31;54397;47.506;19.158;2023-07-29T20:22:44;24.57;66.77
67572;SHT31;54397;47.506;19.158;2023-07-29T20:26:05;24.48;67.17
67572;SHT31;54397;47.506;19.158;2023-07-29T20:29:29;24.59;67.03
67572;SHT31;54397;47.506;19.158;2023-07-29T20:32:51;24.72;66.55
67572;SHT31;54397;47.506;19.158;2023-07-29T20:36:15;24.83;66.20
67572;SHT31;54397;47.506;19.158;2023-07-29T20:39:37;24.83;66.10
67572;SHT31;54397;47.506;19.158;2023-07-29T20:43:01;24.75;66.01
67572;SHT31;54397;47.506;19.158;2023-07-29T20:46:25;24.71;66.28
67572;SHT31;54397;47.506;19.158;2023-07-29T20:49:50;24.72;66.14
67572;SHT31;54397;47.506;19.158;2023-07-29T20:53:11;24.68;66.23
67572;SHT31;54397;47.506;19.158;2023-07-29T20:56:38;24.62;66.34
67572;SHT31;54397;47.506;19.158;2023-07-29T20:59:59;24.44;66.52
67572;SHT31;54397;47.506;19.158;2023-07-29T21:03:23;24.31;67.12
67572;SHT31;54397;47.506;19.158;2023-07-29T21:06:47;24.17;68.09
67572;SHT31;54397;47.506;19.158;2023-07-29T21:10:08;23.77;69.18
67572;SHT31;54397;47.506;19.158;2023-07-29T21:13:32;23.56;70.09
67572;SHT31;54397;47.506;19.158;2023-07-29T21:16:56;23.61;70.15
67572;SHT31;54397;47.506;19.158;2023-07-29T21:20:18;23.63;70.23
67572;SHT31;54397;47.506;19.158;2023-07-29T21:23:42;23.58;70.23
67572;SHT31;54397;47.506;19.158;2023-07-29T21:27:04;23.67;69.64
67572;SHT31;54397;47.506;19.158;2023-07-29T21:30:28;23.38;70.56